Time;durP1;ratioP1;P1;durP2;ratioP2;P2;SDS_P1;SDS_P2;PMS_P1;PMS_P2;Temp;Humidity;BMP_temperature;BMP_pressure;BME280_temperature;BME280_humidity;BME280_pressure;Samples;Min_cycle;Max_cycle;Signal;HPM_P1;HPM_P2
2023/09/26 00:00:20;;;;;;;17.63;7.17;;;;;;;19.53;39.53;101356.45;126301;1086;102741;-73
2023/09/26 00:03:08;;;;;;;17.60;6.80;;;;;;;19.42;40.00;101358.09;126304;1086;101910;-74
2023/09/26 00:05:37;;;;;;;17.67;7.13;;;;;;;19.34;39.31;101350.88;126272;1086;104260;-74
2023/09/26 00:08:07;;;;;;;20.70;7.50;;;;;;;19.24;39.57;101354.28;126316;1086;102228;-73
2023/09/26 00:10:36;;;;;;;19.83;7.80;;;;;;;19.09;39.94;101357.64;126263;1086;104233;-74
2023/09/26 00:13:05;;;;;;;19.27;7.70;;;;;;;18.99;40.13;101361.03;126321;1086;104222;-74
2023/09/26 00:15:34;;;;;;;23.17;7.87;;;;;;;18.91;40.32;101352.94;126278;1086;104103;-74
2023/09/26 00:18:03;;;;;;;16.07;7.43;;;;;;;18.91;40.62;101355.59;126298;1086;104177;-74
2023/09/26 00:20:34;;;;;;;15.93;7.63;;;;;;;18.93;40.66;101356.53;126334;1086;104222;-75
2023/09/26 00:23:03;;;;;;;20.63;7.60;;;;;;;18.96;40.22;101356.55;126291;1086;104258;-75
2023/09/26 00:25:32;;;;;;;15.43;7.23;;;;;;;18.96;40.42;101359.20;126278;1086;102163;-74
2023/09/26 00:28:00;;;;;;;17.80;7.90;;;;;;;18.83;41.18;101360.76;126305;1086;104229;-75
2023/09/26 00:30:29;;;;;;;19.70;7.70;;;;;;;18.65;41.27;101356.06;126332;1086;104188;-76
2023/09/26 00:32:58;;;;;;;16.20;7.30;;;;;;;18.49;41.83;101351.35;126341;1086;102002;-74
2023/09/26 00:35:26;;;;;;;18.27;8.00;;;;;;;18.42;41.34;101354.80;126269;1085;104207;-74
2023/09/26 00:37:55;;;;;;;16.97;7.93;;;;;;;18.36;42.32;101360.00;126263;1086;101989;-74
2023/09/26 00:40:24;;;;;;;24.90;7.80;;;;;;;18.30;42.39;101368.75;126346;1086;104245;-75
2023/09/26 00:42:52;;;;;;;16.77;7.83;;;;;;;18.22;42.64;101368.61;126261;1086;104254;-74
2023/09/26 00:45:21;;;;;;;20.27;8.33;;;;;;;18.17;43.13;101370.30;126277;1086;104324;-74
2023/09/26 00:47:50;;;;;;;18.37;7.70;;;;;;;18.12;42.93;101378.18;126266;1086;104254;-74
2023/09/26 00:50:22;;;;;;;22.53;7.37;;;;;;;18.14;42.89;101375.55;126293;1086;102005;-74
2023/09/26 00:52:53;;;;;;;22.23;8.63;;;;;;;18.17;43.06;101375.61;126338;1085;104155;-75
2023/09/26 00:55:24;;;;;;;19.07;7.37;;;;;;;18.20;43.16;101370.35;126320;1086;104283;-74
2023/09/26 00:57:55;;;;;;;19.23;7.30;;;;;;;18.21;43.05;101369.46;126319;1086;101814;-74
2023/09/26 01:00:26;;;;;;;18.43;7.60;;;;;;;18.21;43.08;101372.12;126274;1086;101848;-74
2023/09/26 01:02:56;;;;;;;17.17;7.53;;;;;;;18.21;43.45;101368.58;126326;1086;104229;-74
2023/09/26 01:05:25;;;;;;;18.73;7.43;;;;;;;18.19;43.51;101365.89;126302;1086;102531;-74
2023/09/26 01:07:54;;;;;;;21.33;7.90;;;;;;;18.12;43.76;101364.90;126286;1086;104185;-75
2023/09/26 01:10:23;;;;;;;15.13;7.43;;;;;;;18.07;43.84;101369.20;126353;1086;104198;-74
2023/09/26 01:12:52;;;;;;;17.90;7.77;;;;;;;18.05;43.91;101367.41;126330;1086;105516;-74
2023/09/26 01:15:32;;;;;;;18.80;7.23;;;;;;;17.95;44.20;101368.97;126245;1086;101963;-75
2023/09/26 01:18:01;;;;;;;15.70;7.50;;;;;;;17.81;44.69;101370.44;126320;1085;104203;-74
2023/09/26 01:20:30;;;;;;;16.40;7.90;;;;;;;17.67;44.06;101371.07;126310;1086;104177;-74
2023/09/26 01:23:04;;;;;;;17.13;7.47;;;;;;;17.65;44.68;101374.55;126751;1086;104257;-74
2023/09/26 01:25:33;;;;;;;21.60;8.10;;;;;;;17.52;45.33;101363.67;126323;1086;102229;-74
2023/09/26 01:28:06;;;;;;;18.37;7.90;;;;;;;17.39;46.39;101372.22;126277;1085;104222;-75
2023/09/26 01:30:35;;;;;;;21.50;8.18;;;;;;;17.21;46.33;101364.78;126296;1085;104235;-74
2023/09/26 01:33:10;;;;;;;22.13;8.27;;;;;;;17.09;47.13;101368.03;126330;1086;104261;-74
2023/09/26 01:35:39;;;;;;;17.83;8.60;;;;;;;17.00;46.83;101376.69;126331;1086;104186;-74
2023/09/26 01:38:08;;;;;;;20.80;8.13;;;;;;;16.93;47.16;101377.39;126347;1086;104319;-74
2023/09/26 01:40:37;;;;;;;18.83;7.77;;;;;;;16.85;46.96;101379.83;126278;1085;104318;-74
2023/09/26 01:43:05;;;;;;;18.35;8.30;;;;;;;16.75;47.80;101377.84;126302;1086;104232;-75
2023/09/26 01:45:34;;;;;;;20.03;8.20;;;;;;;16.61;48.03;101371.28;126342;1085;104249;-75
2023/09/26 01:48:05;;;;;;;22.00;7.87;;;;;;;16.48;48.08;101378.03;126285;1086;104244;-75
2023/09/26 01:50:34;;;;;;;17.07;8.10;;;;;;;16.36;48.94;101383.89;126358;1086;104206;-74
2023/09/26 01:53:04;;;;;;;27.37;8.93;;;;;;;16.26;49.05;101377.47;126295;1086;104210;-74
2023/09/26 01:55:32;;;;;;;18.80;8.30;;;;;;;16.26;49.44;101373.94;126308;1086;104246;-74
2023/09/26 01:58:01;;;;;;;18.43;7.60;;;;;;;16.26;48.69;101373.94;126362;1086;104232;-74
2023/09/26 02:00:30;;;;;;;21.10;7.87;;;;;;;16.24;49.61;101380.95;126362;1086;104241;-74
2023/09/26 02:02:58;;;;;;;19.10;8.27;;;;;;;16.18;49.44;101374.61;126294;1086;104296;-74
2023/09/26 02:05:27;;;;;;;20.47;7.47;;;;;;;16.12;49.91;101379.74;126269;1086;104254;-75
2023/09/26 02:07:56;;;;;;;24.53;7.90;;;;;;;16.08;50.36;101377.89;126291;1086;101919;-74
2023/09/26 02:10:25;;;;;;;21.17;8.37;;;;;;;16.07;49.90;101381.38;126326;1085;101938;-74
2023/09/26 02:12:54;;;;;;;17.83;7.53;;;;;;;16.06;49.82;101389.28;126328;1086;104222;-74
2023/09/26 02:15:22;;;;;;;21.00;8.20;;;;;;;15.96;50.52;101386.37;126342;1086;104172;-74
2023/09/26 02:17:51;;;;;;;16.80;7.87;;;;;;;15.91;50.15;101392.39;126290;1086;104231;-74
2023/09/26 02:20:21;;;;;;;21.53;8.27;;;;;;;15.89;50.42;101396.75;126334;1086;104181;-74
2023/09/26 02:22:51;;;;;;;17.33;7.93;;;;;;;15.88;49.99;101389.66;126312;1086;104200;-75
2023/09/26 02:25:21;;;;;;;18.50;7.67;;;;;;;15.86;50.54;101394.02;126320;1086;104251;-74
2023/09/26 02:27:50;;;;;;;17.20;8.10;;;;;;;15.83;51.48;101393.93;126310;1086;104232;-74
2023/09/26 02:30:20;;;;;;;19.50;7.87;;;;;;;15.83;51.70;101392.17;126333;1086;104235;-74
2023/09/26 02:32:50;;;;;;;17.30;7.87;;;;;;;15.84;50.47;101387.80;127588;1085;101848;-75
2023/09/26 02:35:20;;;;;;;16.57;7.93;;;;;;;15.84;51.74;101382.50;126272;1086;101946;-74
2023/09/26 02:37:49;;;;;;;19.05;8.60;;;;;;;15.87;50.81;101383.47;126318;1086;101795;-74
2023/09/26 02:40:18;;;;;;;21.83;8.40;;;;;;;15.92;51.58;101386.25;126287;1085;102098;-74
2023/09/26 02:42:48;;;;;;;18.43;7.57;;;;;;;15.92;51.43;101386.25;127592;1085;104347;-75
2023/09/26 02:45:17;;;;;;;17.83;8.30;;;;;;;15.88;51.44;101379.98;126322;1086;101961;-74
2023/09/26 02:47:46;;;;;;;17.67;7.80;;;;;;;15.84;52.13;101386.03;126347;1086;104260;-74
2023/09/26 02:50:14;;;;;;;20.57;9.00;;;;;;;15.75;52.11;101384.01;126322;1086;101835;-74
2023/09/26 02:52:43;;;;;;;18.70;8.13;;;;;;;15.73;51.10;101385.69;126344;1085;102259;-74
2023/09/26 02:55:12;;;;;;;18.87;8.50;;;;;;;15.70;52.54;101384.72;126279;1085;104165;-74
2023/09/26 02:57:41;;;;;;;22.70;7.80;;;;;;;15.62;52.60;101379.20;126338;1086;104229;-74
2023/09/26 03:00:16;;;;;;;16.70;7.67;;;;;;;15.57;51.79;101391.41;126309;1086;104178;-74
2023/09/26 03:02:45;;;;;;;18.97;8.00;;;;;;;15.52;52.10;101385.98;126336;1086;101810;-73
2023/09/26 03:05:14;;;;;;;18.27;8.37;;;;;;;15.56;52.50;101386.95;126300;1086;104261;-74
2023/09/26 03:07:44;;;;;;;20.10;8.20;;;;;;;15.63;52.66;101392.47;126262;1086;104392;-73
2023/09/26 03:10:13;;;;;;;19.70;7.80;;;;;;;15.70;52.69;101396.19;126220;1086;104245;-73
2023/09/26 03:12:45;;;;;;;19.17;8.03;;;;;;;15.68;52.25;101389.96;126272;1085;104184;-72
2023/09/26 03:15:14;;;;;;;17.63;8.10;;;;;;;15.68;52.10;101391.72;126275;1086;104264;-72
2023/09/26 03:17:43;;;;;;;17.57;7.90;;;;;;;15.63;51.69;101383.66;126315;1086;104216;-73
2023/09/26 03:20:15;;;;;;;18.20;8.57;;;;;;;15.62;52.60;101397.72;126286;1086;101923;-73
2023/09/26 03:22:44;;;;;;;17.97;8.10;;;;;;;15.57;52.29;101387.00;126351;1086;104053;-73
2023/09/26 03:25:12;;;;;;;19.00;7.63;;;;;;;15.54;51.73;101396.61;126283;1085;104213;-73
2023/09/26 03:27:42;;;;;;;20.93;8.53;;;;;;;15.45;52.23;101399.86;126279;1086;101816;-73
2023/09/26 03:30:14;;;;;;;19.93;7.97;;;;;;;15.35;51.88;101398.70;126331;1086;104311;-74
2023/09/26 03:32:44;;;;;;;18.12;7.37;;;;;;;15.25;51.79;101397.52;126274;1086;104177;-73
2023/09/26 03:35:13;;;;;;;20.00;7.97;;;;;;;15.17;52.36;101406.05;126283;1086;104220;-73
2023/09/26 03:37:41;;;;;;;24.15;8.75;;;;;;;15.08;52.82;101404.92;126334;1086;101903;-73
2023/09/26 03:40:12;;;;;;;19.23;8.37;;;;;;;15.04;52.22;101405.66;126308;1086;104263;-73
2023/09/26 03:42:40;;;;;;;21.27;8.00;;;;;;;15.00;52.65;101405.52;126373;1086;104211;-73
2023/09/26 03:45:10;;;;;;;18.10;8.53;;;;;;;14.95;52.85;101401.84;126274;1086;104289;-73
2023/09/26 03:47:39;;;;;;;19.80;8.53;;;;;;;14.92;53.34;101405.27;126343;1086;102230;-73
2023/09/26 03:50:09;;;;;;;17.93;7.50;;;;;;;14.88;52.95;101412.21;126306;1086;104232;-72
2023/09/26 03:52:37;;;;;;;19.70;7.73;;;;;;;14.82;52.51;101408.45;126366;1086;104166;-73
2023/09/26 03:55:07;;;;;;;23.20;8.20;;;;;;;14.78;52.68;101406.57;126241;1086;104217;-72
2023/09/26 03:57:36;;;;;;;16.47;7.60;;;;;;;14.74;53.15;101409.11;126365;1086;102180;-73
2023/09/26 04:00:13;;;;;;;18.03;7.70;;;;;;;14.73;52.62;101402.02;126373;1086;104145;-73
2023/09/26 04:02:41;;;;;;;21.27;8.20;;;;;;;14.75;52.63;101402.08;126297;1086;104338;-74
2023/09/26 04:05:10;;;;;;;20.03;8.10;;;;;;;14.75;53.60;101412.64;126414;1086;104146;-74
2023/09/26 04:07:39;;;;;;;19.87;8.00;;;;;;;14.71;52.88;101409.02;126383;1086;102249;-74
2023/09/26 04:10:10;;;;;;;19.90;7.97;;;;;;;14.69;53.78;101407.16;126354;1086;104347;-74
2023/09/26 04:12:39;;;;;;;20.97;8.10;;;;;;;14.67;53.93;101412.38;126439;1086;104191;-73
2023/09/26 04:15:10;;;;;;;24.63;8.00;;;;;;;14.62;53.26;101406.06;126415;1086;104201;-74
2023/09/26 04:17:39;;;;;;;16.77;7.13;;;;;;;14.60;54.08;101409.45;126454;1086;101896;-74
2023/09/26 04:20:12;;;;;;;21.73;8.47;;;;;;;14.59;53.45;101418.23;126422;1086;104773;-73
2023/09/26 04:22:40;;;;;;;18.80;7.47;;;;;;;14.58;54.31;101421.72;126406;1086;104148;-73
2023/09/26 04:25:10;;;;;;;16.60;7.60;;;;;;;14.60;53.88;101418.33;126363;1086;104184;-74
2023/09/26 04:27:39;;;;;;;21.27;8.33;;;;;;;14.64;53.27;101414.92;126415;1086;104229;-72
2023/09/26 04:30:12;;;;;;;20.05;8.85;;;;;;;14.68;54.26;101423.87;126400;1086;104150;-74
2023/09/26 04:32:40;;;;;;;24.27;8.53;;;;;;;14.71;53.96;101419.58;126421;1086;102047;-74
2023/09/26 04:35:10;;;;;;;19.33;7.93;;;;;;;14.76;54.30;101421.45;126396;1086;104185;-74
2023/09/26 04:37:38;;;;;;;17.67;7.53;;;;;;;14.80;53.68;101424.25;126384;1086;102198;-74
2023/09/26 04:40:10;;;;;;;20.90;7.80;;;;;;;14.83;53.95;101412.89;126490;1086;104239;-74
2023/09/26 04:42:40;;;;;;;20.13;8.10;;;;;;;14.82;54.92;101426.94;126400;1086;101822;-74
2023/09/26 04:45:10;;;;;;;17.37;8.10;;;;;;;14.78;55.01;101423.31;126412;1086;104248;-73
2023/09/26 04:47:39;;;;;;;19.73;9.07;;;;;;;14.74;55.53;101424.97;126355;1086;101931;-73
2023/09/26 04:50:09;;;;;;;18.60;8.20;;;;;;;14.74;54.62;101424.97;126387;1086;104178;-73
2023/09/26 04:52:38;;;;;;;20.40;8.33;;;;;;;14.78;55.04;101425.06;126400;1086;103378;-73
2023/09/26 04:55:08;;;;;;;19.50;7.93;;;;;;;14.79;54.91;101422.48;126374;1086;104207;-73
2023/09/26 04:57:37;;;;;;;26.73;8.13;;;;;;;14.82;55.77;101432.22;126458;1086;102070;-75
2023/09/26 05:00:09;;;;;;;20.53;8.03;;;;;;;14.86;55.77;101429.73;126300;1086;104481;-74
2023/09/26 05:02:38;;;;;;;18.43;8.30;;;;;;;14.88;56.13;101428.06;127677;1085;101922;-73
2023/09/26 05:05:10;;;;;;;20.50;8.30;;;;;;;14.92;56.25;101431.70;126530;1086;104264;-74
2023/09/26 05:07:43;;;;;;;20.00;8.07;;;;;;;14.96;55.69;101424.75;126436;1086;104187;-76
2023/09/26 05:10:13;;;;;;;20.10;8.80;;;;;;;15.01;55.25;101437.28;126567;1086;102067;-76
2023/09/26 05:12:42;;;;;;;23.17;8.97;;;;;;;15.08;55.74;101436.65;126382;1086;104417;-74
2023/09/26 05:15:13;;;;;;;24.73;9.13;;;;;;;15.16;55.68;101442.18;126339;1086;104366;-74
2023/09/26 05:17:46;;;;;;;20.70;8.30;;;;;;;15.24;55.91;101451.24;126325;1086;104238;-75
2023/09/26 05:20:15;;;;;;;21.67;8.57;;;;;;;15.34;55.71;101446.25;126310;1086;104220;-73
2023/09/26 05:22:45;;;;;;;23.37;9.40;;;;;;;15.42;55.78;101458.84;126237;1086;101816;-74
2023/09/26 05:25:14;;;;;;;27.30;8.90;;;;;;;15.53;55.22;101455.64;126317;1086;103374;-76
2023/09/26 05:27:43;;;;;;;22.63;8.27;;;;;;;15.60;55.11;101453.23;126498;1086;102344;-79
2023/09/26 05:30:14;;;;;;;21.05;9.25;;;;;;;15.68;55.20;101444.64;126358;1085;104520;-75
2023/09/26 05:32:44;;;;;;;21.10;9.17;;;;;;;15.74;55.23;101443.06;126469;1086;104193;-75
2023/09/26 05:35:13;;;;;;;27.47;9.60;;;;;;;15.83;56.07;101450.39;126813;1086;101860;-75
2023/09/26 05:37:42;;;;;;;25.47;8.80;;;;;;;15.92;55.88;101455.95;126288;1086;104203;-73
2023/09/26 05:40:12;;;;;;;26.37;8.90;;;;;;;16.02;55.74;101454.49;126668;1086;101899;-75
2023/09/26 05:42:41;;;;;;;22.93;9.40;;;;;;;16.11;55.87;101462.70;126440;1086;104162;-77
2023/09/26 05:45:11;;;;;;;24.73;9.80;;;;;;;16.21;55.20;101468.25;127363;1086;104382;-76
2023/09/26 05:47:40;;;;;;;20.87;8.87;;;;;;;16.28;55.85;101468.47;126542;1086;104351;-74
2023/09/26 05:50:11;;;;;;;21.60;8.50;;;;;;;16.37;55.51;101462.50;127108;1086;101986;-76
2023/09/26 05:52:40;;;;;;;21.77;8.77;;;;;;;16.45;55.39;101468.02;128086;1086;102324;-75
2023/09/26 05:55:11;;;;;;;25.80;9.47;;;;;;;16.53;54.94;101462.08;126448;1086;104269;-73
2023/09/26 05:57:44;;;;;;;23.07;8.43;;;;;;;16.61;55.42;101478.18;126282;1086;103608;-76
2023/09/26 06:00:20;;;;;;;21.43;8.87;;;;;;;16.71;54.98;101468.71;127488;1086;103387;-77
2023/09/26 06:02:52;;;;;;;21.93;8.50;;;;;;;16.78;55.17;101465.38;127665;1085;104028;-76
2023/09/26 06:05:21;;;;;;;21.17;8.53;;;;;;;16.88;54.71;101470.06;126500;1086;101864;-77
2023/09/26 06:07:51;;;;;;;25.80;8.30;;;;;;;16.98;54.43;101470.30;126452;1086;104255;-75
2023/09/26 06:10:20;;;;;;;26.87;8.80;;;;;;;17.07;54.79;101459.92;126462;1086;104165;-74
2023/09/26 06:12:49;;;;;;;25.67;8.57;;;;;;;17.17;54.80;101468.98;126291;1086;104267;-75
2023/09/26 06:15:18;;;;;;;24.20;8.83;;;;;;;17.27;54.76;101467.47;126582;1086;104162;-75
2023/09/26 06:17:49;;;;;;;21.30;8.13;;;;;;;17.37;54.70;101464.16;126731;1086;101971;-76
2023/09/26 06:20:18;;;;;;;24.53;8.77;;;;;;;17.46;54.61;101467.02;126091;1086;104274;-75
2023/09/26 06:22:47;;;;;;;28.33;8.77;;;;;;;17.56;54.13;101457.50;126031;1086;104153;-74
2023/09/26 06:25:16;;;;;;;23.40;8.33;;;;;;;17.69;54.20;101471.97;126565;1086;104156;-74
2023/09/26 06:27:44;;;;;;;24.60;8.70;;;;;;;17.80;53.84;101465.12;126643;1086;104146;-74
2023/09/26 06:30:14;;;;;;;24.27;9.10;;;;;;;17.91;54.08;101463.61;126810;1086;104197;-74
2023/09/26 06:32:43;;;;;;;21.85;9.00;;;;;;;18.04;53.81;101471.83;126524;1086;101980;-76
2023/09/26 06:35:19;;;;;;;21.53;8.87;;;;;;;18.16;53.88;101468.55;126353;1086;101806;-73
2023/09/26 06:37:50;;;;;;;25.03;8.23;;;;;;;18.27;53.75;101470.53;126910;1086;104191;-75
2023/09/26 06:40:19;;;;;;;23.37;9.27;;;;;;;18.40;53.87;101468.11;127720;1085;107022;-76
2023/09/26 06:42:50;;;;;;;22.93;8.03;;;;;;;18.53;53.59;101471.88;126652;1086;104149;-76
2023/09/26 06:45:27;;;;;;;20.17;8.20;;;;;;;18.66;53.10;101469.48;126927;1086;101914;-77
2023/09/26 06:48:01;;;;;;;25.70;8.90;;;;;;;18.80;53.20;101474.16;126353;1086;104257;-76
2023/09/26 06:50:43;;;;;;;25.43;9.50;;;;;;;18.95;53.55;101478.89;127355;1086;118120;-74
2023/09/26 06:53:12;;;;;;;23.37;8.87;;;;;;;19.10;52.74;101472.91;126958;1086;102112;-77
2023/09/26 06:55:47;;;;;;;22.47;8.57;;;;;;;19.27;52.92;101470.52;126433;1086;104216;-76
2023/09/26 06:58:18;;;;;;;21.97;8.03;;;;;;;19.47;52.81;101477.02;126599;1086;104221;-74
2023/09/26 07:00:47;;;;;;;27.87;9.07;;;;;;;19.65;52.48;101468.42;126513;1086;101902;-77
2023/09/26 07:03:32;;;;;;;24.37;8.10;;;;;;;19.80;52.17;101458.88;126829;1086;104216;-78
2023/09/26 07:06:09;;;;;;;24.00;8.77;;;;;;;20.09;51.30;101470.78;126899;1086;104149;-75
2023/09/26 07:08:39;;;;;;;20.97;8.47;;;;;;;20.30;50.82;101469.23;126969;1086;104225;-75
2023/09/26 07:11:11;;;;;;;23.37;8.33;;;;;;;20.51;50.18;101470.36;127505;1085;101797;-75
2023/09/26 07:13:42;;;;;;;21.30;8.17;;;;;;;20.68;49.62;101471.45;126713;1086;101983;-77
2023/09/26 07:16:11;;;;;;;20.70;7.53;;;;;;;20.85;50.59;101473.36;126703;1086;104213;-78
2023/09/26 07:18:39;;;;;;;14.83;7.03;;;;;;;21.02;50.12;101469.08;126424;1086;102159;-75
2023/09/26 07:21:14;;;;;;;18.03;7.60;;;;;;;21.14;48.90;101473.60;127240;1085;104168;-75
2023/09/26 07:23:46;;;;;;;19.63;6.80;;;;;;;21.25;48.38;101469.23;127606;1085;104261;-75
2023/09/26 07:26:25;;;;;;;21.43;7.37;;;;;;;21.35;47.87;101467.53;126297;1086;104251;-74
2023/09/26 07:29:00;;;;;;;20.97;7.77;;;;;;;21.50;47.04;101464.08;126713;1086;102357;-72
2023/09/26 07:31:30;;;;;;;19.27;6.60;;;;;;;21.62;47.09;101464.16;126235;1086;104274;-76
2023/09/26 07:34:00;;;;;;;20.37;7.17;;;;;;;21.73;47.47;101472.23;126895;1086;104146;-80
2023/09/26 07:36:32;;;;;;;19.40;7.27;;;;;;;21.86;46.79;101466.07;127067;1086;102194;-80
2023/09/26 07:39:05;;;;;;;16.37;6.77;;;;;;;22.01;46.24;101467.02;127506;1086;104258;-81
2023/09/26 07:41:39;;;;;;;25.77;7.60;;;;;;;22.16;45.37;101469.74;128119;1086;101861;-78
2023/09/26 07:44:11;;;;;;;23.33;7.00;;;;;;;22.29;45.20;101475.13;126730;1085;102644;-79
2023/09/26 07:46:41;;;;;;;23.57;7.47;;;;;;;22.42;44.99;101468.94;127556;1086;104327;-77
2023/09/26 07:49:11;;;;;;;17.93;6.63;;;;;;;22.53;44.87;101469.88;127577;1086;102046;-80
2023/09/26 07:51:43;;;;;;;12.93;6.20;;;;;;;22.65;43.89;101470.77;127595;1086;104252;-85
2023/09/26 07:54:13;;;;;;;16.83;6.87;;;;;;;22.71;44.21;101470.78;127669;1086;104140;-80
2023/09/26 07:56:42;;;;;;;18.30;6.83;;;;;;;22.77;43.42;101462.75;128006;1086;102000;-79
2023/09/26 07:59:18;;;;;;;21.33;6.40;;;;;;;22.84;43.42;101455.61;128088;1085;101790;-81
2023/09/26 08:02:01;;;;;;;17.73;6.53;;;;;;;22.97;43.60;101462.77;129119;1085;102068;-80
2023/09/26 08:04:31;;;;;;;17.98;7.15;;;;;;;23.09;42.47;101457.44;127469;1086;101752;-79
2023/09/26 08:07:02;;;;;;;23.03;6.63;;;;;;;23.19;41.76;101457.40;127958;1085;101892;-80
2023/09/26 08:09:44;;;;;;;14.83;6.30;;;;;;;23.29;41.97;101452.03;127015;1086;104252;-81
2023/09/26 08:12:28;;;;;;;;;;;;;;;;;;;;;
2023/09/26 08:15:13;;;;;;;14.23;5.75;;;;;;;23.53;40.41;101451.98;127286;1086;102121;-79
2023/09/26 08:17:47;;;;;;;19.73;6.57;;;;;;;23.60;41.39;101454.64;127066;1086;102024;-79
2023/09/26 08:20:19;;;;;;;15.60;6.53;;;;;;;23.69;40.26;101453.73;127571;1085;101820;-80
2023/09/26 08:22:58;;;;;;;18.07;6.63;;;;;;;23.78;40.96;101450.10;127426;1086;101833;-79
2023/09/26 08:25:32;;;;;;;11.90;5.97;;;;;;;23.83;39.35;101451.88;128339;1086;101769;-83
2023/09/26 08:28:07;;;;;;;18.20;6.10;;;;;;;24.01;40.01;101447.36;127891;1086;104075;-85
2023/09/26 08:30:36;;;;;;;14.83;6.20;;;;;;;24.10;39.46;101450.00;128117;1086;102045;-79
2023/09/26 08:33:07;;;;;;;15.07;5.77;;;;;;;24.22;38.38;101449.05;128713;1085;104171;-82
2023/09/26 08:35:38;;;;;;;18.47;5.73;;;;;;;24.36;39.43;101451.65;127282;1086;101924;-79
2023/09/26 08:38:09;;;;;;;;;;;;;;;24.45;37.90;101440.86;127795;1085;101788;-80
2023/09/26 08:40:45;;;;;;;14.93;5.47;;;;;;;24.53;38.65;101436.32;127861;1086;101812;-81
2023/09/26 08:43:16;;;;;;;13.13;5.60;;;;;;;24.60;37.88;101439.88;127345;1085;104156;-75
2023/09/26 08:45:56;;;;;;;18.37;5.73;;;;;;;24.67;37.92;101438.94;126685;1086;102013;-76
2023/09/26 08:48:27;;;;;;;13.83;5.80;;;;;;;24.76;37.20;101432.58;126559;1086;104075;-77
2023/09/26 08:51:02;;;;;;;12.83;5.40;;;;;;;24.91;36.99;101429.77;126543;1086;104197;-74
2023/09/26 08:53:32;;;;;;;15.77;6.20;;;;;;;24.98;36.34;101432.40;126307;1086;104283;-74
2023/09/26 08:56:01;;;;;;;12.40;5.40;;;;;;;25.13;37.02;101429.57;126301;1086;104283;-73
2023/09/26 08:58:32;;;;;;;15.30;5.67;;;;;;;25.27;37.11;101433.03;126321;1086;104658;-75
2023/09/26 09:01:02;;;;;;;10.63;5.33;;;;;;;25.38;36.61;101423.98;126588;1086;104059;-77
2023/09/26 09:03:32;;;;;;;10.10;5.25;;;;;;;25.45;36.64;101425.70;126429;1086;102034;-76
2023/09/26 09:06:01;;;;;;;16.53;4.93;;;;;;;25.50;35.98;101428.34;127317;1086;101822;-79
2023/09/26 09:08:30;;;;;;;14.10;5.07;;;;;;;25.59;35.94;101433.60;127300;1085;101827;-79
2023/09/26 09:11:00;;;;;;;9.20;4.50;;;;;;;25.67;35.00;101420.08;126731;1085;104229;-77
2023/09/26 09:13:31;;;;;;;17.10;5.27;;;;;;;25.74;35.10;101428.05;126320;1086;101954;-77
2023/09/26 09:16:14;;;;;;;15.37;4.67;;;;;;;25.81;35.06;101432.41;126341;1086;104027;-76
2023/09/26 09:18:44;;;;;;;;;;;;;;;25.83;34.75;101414.45;126571;1086;102070;-77
2023/09/26 09:21:27;;;;;;;12.73;5.10;;;;;;;25.92;34.76;101420.64;126406;1086;104226;-77
2023/09/26 09:23:57;;;;;;;14.63;5.10;;;;;;;26.03;34.84;101417.84;126431;1086;119056;-78
2023/09/26 09:26:30;;;;;;;12.83;5.70;;;;;;;26.15;35.01;101415.86;126304;1086;102144;-76
2023/09/26 09:29:18;;;;;;;10.03;4.83;;;;;;;26.20;34.51;101413.10;126330;1085;101977;-76
2023/09/26 09:31:49;;;;;;;11.37;4.40;;;;;;;26.24;33.57;101412.16;127608;1086;104213;-76
2023/09/26 09:34:19;;;;;;;11.67;4.43;;;;;;;26.30;33.88;101411.16;126355;1086;102074;-77
2023/09/26 09:36:50;;;;;;;11.73;4.90;;;;;;;26.36;33.50;101411.06;127122;1086;104149;-76
2023/09/26 09:39:22;;;;;;;12.13;4.70;;;;;;;26.40;32.91;101399.34;126377;1086;104171;-76
2023/09/26 09:41:57;;;;;;;10.50;5.00;;;;;;;26.48;33.74;101404.61;126016;1087;104181;-77
2023/09/26 09:44:26;;;;;;;11.13;4.83;;;;;;;26.57;33.00;101401.77;126373;1086;109978;-78
2023/09/26 09:47:03;;;;;;;11.77;4.37;;;;;;;26.59;33.04;101404.44;127053;1086;104159;-75
2023/09/26 09:49:37;;;;;;;12.03;4.80;;;;;;;26.61;32.87;101406.17;126401;1086;104284;-76
2023/09/26 09:52:17;;;;;;;13.60;4.60;;;;;;;26.60;31.98;101406.19;126320;1086;101939;-79
2023/09/26 09:54:55;;;;;;;10.65;4.53;;;;;;;26.67;32.30;101405.22;126336;1086;104181;-78
2023/09/26 09:57:46;;;;;;;9.40;4.30;;;;;;;26.72;32.17;101396.16;126144;1086;104216;-79
2023/09/26 10:00:24;;;;;;;11.07;4.37;;;;;;;26.80;32.14;101393.34;127673;1086;102015;-84
2023/09/26 10:03:06;;;;;;;9.47;4.30;;;;;;;26.87;31.18;101386.91;128200;1085;104169;-81
2023/09/26 10:05:48;;;;;;;9.53;4.03;;;;;;;26.91;30.57;101390.42;127378;1086;102049;-82
2023/09/26 10:08:24;;;;;;;9.70;4.57;;;;;;;26.93;30.77;101382.31;127229;1086;104165;-79
2023/09/26 10:10:54;;;;;;;9.03;4.10;;;;;;;26.99;31.25;101375.04;127209;1086;101925;-81
2023/09/26 10:13:26;;;;;;;10.97;4.03;;;;;;;27.06;30.88;101387.45;127228;1086;101839;-77
2023/09/26 10:16:05;;;;;;;10.73;4.37;;;;;;;27.12;30.92;101385.58;127832;1085;104162;-80
2023/09/26 10:18:43;;;;;;;12.27;4.23;;;;;;;27.17;30.73;101387.25;126455;1086;104268;-80
2023/09/26 10:21:40;;;;;;;10.80;4.40;;;;;;;27.19;29.89;101388.12;127297;1086;104273;-82
2023/09/26 10:24:29;;;;;;;11.83;4.53;;;;;;;27.20;29.41;101379.11;127239;1086;102280;-82
2023/09/26 10:27:16;;;;;;;8.03;4.03;;;;;;;27.28;29.62;101375.38;126369;1086;104169;-80
2023/09/26 10:29:47;;;;;;;9.13;4.00;;;;;;;27.37;30.17;101373.42;127415;1086;104220;-77
2023/09/26 10:32:32;;;;;;;11.83;4.60;;;;;;;27.43;30.66;101364.33;127281;1086;104142;-84
2023/09/26 10:35:30;;;;;;;13.30;3.97;;;;;;;27.45;29.96;101357.09;128247;1085;101771;-82
2023/09/26 10:38:24;;;;;;;10.53;4.10;;;;;;;27.49;30.11;101361.51;126585;1086;104302;-81
2023/09/26 10:40:53;;;;;;;8.63;4.00;;;;;;;27.47;29.41;101363.33;127732;1086;104231;-82
2023/09/26 10:43:27;;;;;;;9.90;3.73;;;;;;;27.45;30.12;101362.48;127672;1086;104127;-83
2023/09/26 10:46:12;;;;;;;11.97;3.80;;;;;;;27.48;29.42;101356.15;128017;1085;106771;-83
2023/09/26 10:48:46;;;;;;;11.48;4.67;;;;;;;27.54;29.59;101353.33;127410;1086;104229;-82
2023/09/26 10:51:23;;;;;;;11.87;4.37;;;;;;;27.60;29.42;101356.77;127313;1086;102003;-80
2023/09/26 10:57:47;;;;;;;11.57;4.20;;;;;;;27.67;28.31;101346.73;128278;1085;118418;-80
2023/09/26 11:00:18;;;;;;;5.97;3.70;;;;;;;27.66;28.88;101352.16;127759;1086;104149;-82
2023/09/26 11:02:48;;;;;;;15.57;4.10;;;;;;;27.66;28.12;101341.37;126987;1086;102090;-78
2023/09/26 11:05:24;;;;;;;7.03;3.93;;;;;;;27.74;28.60;101336.72;126609;1086;104245;-80
2023/09/26 11:07:55;;;;;;;9.90;3.73;;;;;;;27.76;28.28;101349.22;126549;1086;104229;-79
2023/09/26 11:10:27;;;;;;;10.43;3.80;;;;;;;27.75;28.12;101341.16;126691;1085;104155;-79
2023/09/26 11:12:59;;;;;;;10.17;3.97;;;;;;;27.78;28.31;101335.70;126941;1086;104194;-82
2023/09/26 11:15:30;;;;;;;8.93;4.00;;;;;;;27.82;28.61;101340.12;126712;1086;104251;-81
2023/09/26 11:18:01;;;;;;;8.17;3.67;;;;;;;27.90;28.61;101330.03;126966;1086;102210;-83
2023/09/26 11:20:31;;;;;;;8.80;3.77;;;;;;;27.96;29.00;101332.62;127924;1085;101915;-80
2023/09/26 11:23:26;;;;;;;11.60;3.87;;;;;;;27.93;27.15;101334.48;127922;1085;102029;-78
2023/09/26 11:26:03;;;;;;;11.57;4.00;;;;;;;27.89;27.74;101336.37;127182;1086;102053;-80
2023/09/26 11:28:33;;;;;;;9.00;3.97;;;;;;;27.87;26.33;101348.98;127859;1086;104155;-83